sensor_id;sensor_type;location;lat;lon;timestamp;P1;durP1;ratioP1;P2;durP2;ratioP2
75732;SDS011;73508;47.450;19.128;2024-02-26T00:00:25;21.83;;;11.20;;
75732;SDS011;73508;47.450;19.128;2024-02-26T00:02:50;20.70;;;10.50;;
75732;SDS011;73508;47.450;19.128;2024-02-26T00:05:16;18.83;;;10.70;;
75732;SDS011;73508;47.450;19.128;2024-02-26T00:07:41;18.77;;;10.17;;
75732;SDS011;73508;47.450;19.128;2024-02-26T00:10:07;19.75;;;10.77;;
75732;SDS011;73508;47.450;19.128;2024-02-26T00:12:33;19.37;;;10.07;;
75732;SDS011;73508;47.450;19.128;2024-02-26T00:14:58;18.47;;;10.63;;
75732;SDS011;73508;47.450;19.128;2024-02-26T00:17:27;18.53;;;11.07;;
75732;SDS011;73508;47.450;19.128;2024-02-26T00:19:52;16.00;;;9.60;;
75732;SDS011;73508;47.450;19.128;2024-02-26T00:22:18;18.35;;;10.27;;
75732;SDS011;73508;47.450;19.128;2024-02-26T00:24:43;17.33;;;9.53;;
75732;SDS011;73508;47.450;19.128;2024-02-26T00:27:09;18.27;;;10.37;;
75732;SDS011;73508;47.450;19.128;2024-02-26T00:29:34;19.10;;;9.87;;
75732;SDS011;73508;47.450;19.128;2024-02-26T00:31:59;20.40;;;10.30;;
75732;SDS011;73508;47.450;19.128;2024-02-26T00:34:25;18.57;;;9.43;;
75732;SDS011;73508;47.450;19.128;2024-02-26T00:36:50;21.33;;;10.52;;
75732;SDS011;73508;47.450;19.128;2024-02-26T00:39:15;20.53;;;9.50;;
75732;SDS011;73508;47.450;19.128;2024-02-26T00:41:41;18.43;;;10.20;;
75732;SDS011;73508;47.450;19.128;2024-02-26T00:44:06;18.47;;;10.90;;
75732;SDS011;73508;47.450;19.128;2024-02-26T00:46:32;19.80;;;10.60;;
75732;SDS011;73508;47.450;19.128;2024-02-26T00:48:57;19.05;;;10.35;;
75732;SDS011;73508;47.450;19.128;2024-02-26T00:51:22;17.07;;;10.23;;
75732;SDS011;73508;47.450;19.128;2024-02-26T00:53:48;19.80;;;10.20;;
75732;SDS011;73508;47.450;19.128;2024-02-26T00:56:13;20.43;;;11.50;;
75732;SDS011;73508;47.450;19.128;2024-02-26T00:58:39;21.60;;;11.18;;
75732;SDS011;73508;47.450;19.128;2024-02-26T01:01:04;20.20;;;10.93;;
75732;SDS011;73508;47.450;19.128;2024-02-26T01:03:29;19.13;;;10.97;;
75732;SDS011;73508;47.450;19.128;2024-02-26T01:05:55;18.47;;;10.00;;
75732;SDS011;73508;47.450;19.128;2024-02-26T01:08:20;20.57;;;10.83;;
75732;SDS011;73508;47.450;19.128;2024-02-26T01:10:45;22.17;;;11.13;;
75732;SDS011;73508;47.450;19.128;2024-02-26T01:13:11;21.48;;;10.48;;
75732;SDS011;73508;47.450;19.128;2024-02-26T01:15:36;22.40;;;10.67;;
75732;SDS011;73508;47.450;19.128;2024-02-26T01:18:02;21.20;;;10.63;;
75732;SDS011;73508;47.450;19.128;2024-02-26T01:20:27;19.30;;;10.67;;
75732;SDS011;73508;47.450;19.128;2024-02-26T01:22:52;20.63;;;11.00;;
75732;SDS011;73508;47.450;19.128;2024-02-26T01:25:18;20.35;;;10.65;;
75732;SDS011;73508;47.450;19.128;2024-02-26T01:27:43;19.50;;;11.40;;
75732;SDS011;73508;47.450;19.128;2024-02-26T01:30:09;18.70;;;10.77;;
75732;SDS011;73508;47.450;19.128;2024-02-26T01:32:35;20.70;;;10.75;;
75732;SDS011;73508;47.450;19.128;2024-02-26T01:35:01;21.52;;;11.20;;
75732;SDS011;73508;47.450;19.128;2024-02-26T01:37:28;20.50;;;11.50;;
75732;SDS011;73508;47.450;19.128;2024-02-26T01:39:54;18.12;;;10.70;;
75732;SDS011;73508;47.450;19.128;2024-02-26T01:42:21;19.12;;;10.77;;
75732;SDS011;73508;47.450;19.128;2024-02-26T01:44:47;19.43;;;10.60;;
75732;SDS011;73508;47.450;19.128;2024-02-26T01:47:12;18.60;;;10.40;;
75732;SDS011;73508;47.450;19.128;2024-02-26T01:49:38;20.10;;;10.67;;
75732;SDS011;73508;47.450;19.128;2024-02-26T01:52:04;18.37;;;10.60;;
75732;SDS011;73508;47.450;19.128;2024-02-26T01:54:31;22.05;;;12.48;;
75732;SDS011;73508;47.450;19.128;2024-02-26T01:56:56;21.75;;;11.55;;
75732;SDS011;73508;47.450;19.128;2024-02-26T01:59:22;19.23;;;10.53;;
75732;SDS011;73508;47.450;19.128;2024-02-26T02:04:39;17.60;;;10.18;;
75732;SDS011;73508;47.450;19.128;2024-02-26T02:07:04;19.53;;;10.53;;
75732;SDS011;73508;47.450;19.128;2024-02-26T02:09:30;20.73;;;10.77;;
75732;SDS011;73508;47.450;19.128;2024-02-26T02:11:55;21.12;;;10.80;;
75732;SDS011;73508;47.450;19.128;2024-02-26T02:14:21;18.57;;;10.30;;
75732;SDS011;73508;47.450;19.128;2024-02-26T02:16:47;19.33;;;10.33;;
75732;SDS011;73508;47.450;19.128;2024-02-26T02:19:12;18.00;;;10.77;;
75732;SDS011;73508;47.450;19.128;2024-02-26T02:21:38;19.90;;;10.65;;
75732;SDS011;73508;47.450;19.128;2024-02-26T02:24:03;20.53;;;10.93;;
75732;SDS011;73508;47.450;19.128;2024-02-26T02:26:29;17.83;;;9.83;;
75732;SDS011;73508;47.450;19.128;2024-02-26T02:28:54;16.60;;;9.18;;
75732;SDS011;73508;47.450;19.128;2024-02-26T02:31:20;16.23;;;9.70;;
75732;SDS011;73508;47.450;19.128;2024-02-26T02:33:45;15.83;;;9.23;;
75732;SDS011;73508;47.450;19.128;2024-02-26T02:36:10;19.87;;;10.27;;
75732;SDS011;73508;47.450;19.128;2024-02-26T02:38:37;20.90;;;10.13;;
75732;SDS011;73508;47.450;19.128;2024-02-26T02:41:02;18.50;;;10.73;;
75732;SDS011;73508;47.450;19.128;2024-02-26T02:43:28;16.42;;;9.40;;
75732;SDS011;73508;47.450;19.128;2024-02-26T02:45:53;18.83;;;10.50;;
75732;SDS011;73508;47.450;19.128;2024-02-26T02:48:18;20.30;;;11.60;;
75732;SDS011;73508;47.450;19.128;2024-02-26T02:50:44;19.87;;;12.10;;
75732;SDS011;73508;47.450;19.128;2024-02-26T02:53:09;23.80;;;12.35;;
75732;SDS011;73508;47.450;19.128;2024-02-26T02:55:35;22.57;;;12.70;;
75732;SDS011;73508;47.450;19.128;2024-02-26T02:58:00;21.07;;;11.00;;
75732;SDS011;73508;47.450;19.128;2024-02-26T03:00:25;22.83;;;11.97;;
75732;SDS011;73508;47.450;19.128;2024-02-26T03:02:51;21.60;;;11.67;;
75732;SDS011;73508;47.450;19.128;2024-02-26T03:05:16;20.60;;;11.75;;
75732;SDS011;73508;47.450;19.128;2024-02-26T03:07:42;19.97;;;10.90;;
75732;SDS011;73508;47.450;19.128;2024-02-26T03:10:07;21.30;;;11.20;;
75732;SDS011;73508;47.450;19.128;2024-02-26T03:12:33;18.57;;;10.53;;
75732;SDS011;73508;47.450;19.128;2024-02-26T03:14:59;18.25;;;10.55;;
75732;SDS011;73508;47.450;19.128;2024-02-26T03:17:27;19.27;;;11.12;;
75732;SDS011;73508;47.450;19.128;2024-02-26T03:19:53;21.10;;;11.20;;
75732;SDS011;73508;47.450;19.128;2024-02-26T03:22:19;17.92;;;10.68;;
75732;SDS011;73508;47.450;19.128;2024-02-26T03:24:45;18.05;;;10.30;;
75732;SDS011;73508;47.450;19.128;2024-02-26T03:27:10;18.07;;;10.63;;
75732;SDS011;73508;47.450;19.128;2024-02-26T03:29:36;18.03;;;10.23;;
75732;SDS011;73508;47.450;19.128;2024-02-26T03:32:02;18.37;;;10.65;;
75732;SDS011;73508;47.450;19.128;2024-02-26T03:34:28;19.93;;;11.63;;
75732;SDS011;73508;47.450;19.128;2024-02-26T03:36:53;20.67;;;11.23;;
75732;SDS011;73508;47.450;19.128;2024-02-26T03:39:18;18.77;;;10.67;;
75732;SDS011;73508;47.450;19.128;2024-02-26T03:41:44;17.77;;;10.43;;
75732;SDS011;73508;47.450;19.128;2024-02-26T03:44:09;20.50;;;10.40;;
75732;SDS011;73508;47.450;19.128;2024-02-26T03:46:34;20.07;;;10.33;;
75732;SDS011;73508;47.450;19.128;2024-02-26T03:49:00;20.33;;;10.52;;
75732;SDS011;73508;47.450;19.128;2024-02-26T03:51:25;20.23;;;10.77;;
75732;SDS011;73508;47.450;19.128;2024-02-26T03:53:51;17.80;;;10.33;;
75732;SDS011;73508;47.450;19.128;2024-02-26T03:56:16;19.02;;;10.68;;
75732;SDS011;73508;47.450;19.128;2024-02-26T03:58:42;17.50;;;9.80;;
75732;SDS011;73508;47.450;19.128;2024-02-26T04:01:07;18.00;;;10.73;;
75732;SDS011;73508;47.450;19.128;2024-02-26T04:03:33;16.52;;;10.13;;
75732;SDS011;73508;47.450;19.128;2024-02-26T04:05:59;17.33;;;10.00;;
75732;SDS011;73508;47.450;19.128;2024-02-26T04:08:24;18.70;;;9.90;;
75732;SDS011;73508;47.450;19.128;2024-02-26T04:10:50;20.47;;;10.67;;
75732;SDS011;73508;47.450;19.128;2024-02-26T04:13:15;17.25;;;10.63;;
75732;SDS011;73508;47.450;19.128;2024-02-26T04:15:42;20.07;;;11.40;;
75732;SDS011;73508;47.450;19.128;2024-02-26T04:18:07;21.02;;;11.45;;
75732;SDS011;73508;47.450;19.128;2024-02-26T04:20:33;19.80;;;11.30;;
75732;SDS011;73508;47.450;19.128;2024-02-26T04:22:58;20.80;;;11.30;;
75732;SDS011;73508;47.450;19.128;2024-02-26T04:25:23;21.47;;;11.77;;
75732;SDS011;73508;47.450;19.128;2024-02-26T04:27:49;20.17;;;10.77;;
75732;SDS011;73508;47.450;19.128;2024-02-26T04:30:14;18.48;;;10.15;;
75732;SDS011;73508;47.450;19.128;2024-02-26T04:32:39;21.80;;;11.03;;
75732;SDS011;73508;47.450;19.128;2024-02-26T04:35:05;18.17;;;10.00;;
75732;SDS011;73508;47.450;19.128;2024-02-26T04:37:30;19.67;;;11.80;;
75732;SDS011;73508;47.450;19.128;2024-02-26T04:39:59;20.55;;;12.37;;
75732;SDS011;73508;47.450;19.128;2024-02-26T04:42:25;18.65;;;11.18;;
75732;SDS011;73508;47.450;19.128;2024-02-26T04:44:51;20.50;;;10.97;;
75732;SDS011;73508;47.450;19.128;2024-02-26T04:47:17;17.33;;;10.03;;
75732;SDS011;73508;47.450;19.128;2024-02-26T04:49:42;17.43;;;9.17;;
75732;SDS011;73508;47.450;19.128;2024-02-26T04:52:07;15.95;;;9.23;;
75732;SDS011;73508;47.450;19.128;2024-02-26T04:54:33;17.07;;;10.03;;
75732;SDS011;73508;47.450;19.128;2024-02-26T04:56:58;17.70;;;9.93;;
75732;SDS011;73508;47.450;19.128;2024-02-26T04:59:23;17.57;;;9.63;;
75732;SDS011;73508;47.450;19.128;2024-02-26T05:01:49;18.40;;;10.50;;
75732;SDS011;73508;47.450;19.128;2024-02-26T05:04:16;19.85;;;9.85;;
75732;SDS011;73508;47.450;19.128;2024-02-26T05:06:42;20.10;;;10.83;;
75732;SDS011;73508;47.450;19.128;2024-02-26T05:09:07;22.97;;;11.83;;
75732;SDS011;73508;47.450;19.128;2024-02-26T05:11:33;24.67;;;12.30;;
75732;SDS011;73508;47.450;19.128;2024-02-26T05:13:58;28.43;;;12.97;;
75732;SDS011;73508;47.450;19.128;2024-02-26T05:16:25;23.33;;;11.85;;
75732;SDS011;73508;47.450;19.128;2024-02-26T05:18:52;23.15;;;12.48;;
75732;SDS011;73508;47.450;19.128;2024-02-26T05:21:17;23.77;;;12.63;;
75732;SDS011;73508;47.450;19.128;2024-02-26T05:23:43;26.15;;;12.95;;
75732;SDS011;73508;47.450;19.128;2024-02-26T05:26:08;24.73;;;12.50;;
75732;SDS011;73508;47.450;19.128;2024-02-26T05:28:34;24.08;;;11.70;;
75732;SDS011;73508;47.450;19.128;2024-02-26T05:30:59;28.47;;;11.83;;
75732;SDS011;73508;47.450;19.128;2024-02-26T05:33:25;23.50;;;11.50;;
75732;SDS011;73508;47.450;19.128;2024-02-26T05:35:50;25.90;;;12.00;;
75732;SDS011;73508;47.450;19.128;2024-02-26T05:38:15;26.27;;;12.63;;
75732;SDS011;73508;47.450;19.128;2024-02-26T05:40:41;26.58;;;12.52;;
75732;SDS011;73508;47.450;19.128;2024-02-26T05:43:06;25.60;;;12.93;;
75732;SDS011;73508;47.450;19.128;2024-02-26T05:45:31;26.33;;;12.33;;
75732;SDS011;73508;47.450;19.128;2024-02-26T05:47:58;26.23;;;13.10;;
75732;SDS011;73508;47.450;19.128;2024-02-26T05:50:23;25.17;;;12.50;;
75732;SDS011;73508;47.450;19.128;2024-02-26T05:52:48;24.57;;;12.60;;
75732;SDS011;73508;47.450;19.128;2024-02-26T05:55:14;28.50;;;13.00;;
75732;SDS011;73508;47.450;19.128;2024-02-26T05:57:39;25.67;;;11.97;;
75732;SDS011;73508;47.450;19.128;2024-02-26T06:00:04;28.33;;;13.53;;
75732;SDS011;73508;47.450;19.128;2024-02-26T06:02:30;26.62;;;13.20;;
75732;SDS011;73508;47.450;19.128;2024-02-26T06:04:56;24.23;;;13.10;;
75732;SDS011;73508;47.450;19.128;2024-02-26T06:07:22;25.25;;;11.77;;
75732;SDS011;73508;47.450;19.128;2024-02-26T06:09:48;24.63;;;13.00;;
75732;SDS011;73508;47.450;19.128;2024-02-26T06:12:13;26.73;;;13.68;;
75732;SDS011;73508;47.450;19.128;2024-02-26T06:14:39;24.70;;;13.07;;
75732;SDS011;73508;47.450;19.128;2024-02-26T06:17:04;25.87;;;12.53;;
75732;SDS011;73508;47.450;19.128;2024-02-26T06:19:29;27.37;;;13.17;;
75732;SDS011;73508;47.450;19.128;2024-02-26T06:21:55;25.35;;;12.30;;
75732;SDS011;73508;47.450;19.128;2024-02-26T06:24:20;25.60;;;11.50;;
75732;SDS011;73508;47.450;19.128;2024-02-26T06:26:47;27.10;;;11.88;;
75732;SDS011;73508;47.450;19.128;2024-02-26T06:29:12;23.90;;;11.90;;
75732;SDS011;73508;47.450;19.128;2024-02-26T06:31:38;23.30;;;12.33;;
75732;SDS011;73508;47.450;19.128;2024-02-26T06:34:03;24.33;;;11.80;;
75732;SDS011;73508;47.450;19.128;2024-02-26T06:36:29;23.53;;;11.53;;
75732;SDS011;73508;47.450;19.128;2024-02-26T06:38:56;20.77;;;10.43;;
75732;SDS011;73508;47.450;19.128;2024-02-26T06:41:21;21.95;;;10.95;;
75732;SDS011;73508;47.450;19.128;2024-02-26T06:43:52;23.00;;;10.53;;
75732;SDS011;73508;47.450;19.128;2024-02-26T06:46:17;26.08;;;11.18;;
75732;SDS011;73508;47.450;19.128;2024-02-26T06:48:43;21.47;;;10.70;;
75732;SDS011;73508;47.450;19.128;2024-02-26T06:51:08;19.40;;;10.53;;
75732;SDS011;73508;47.450;19.128;2024-02-26T06:53:33;21.77;;;10.23;;
75732;SDS011;73508;47.450;19.128;2024-02-26T06:55:59;22.87;;;11.00;;
75732;SDS011;73508;47.450;19.128;2024-02-26T06:58:24;24.83;;;11.52;;
75732;SDS011;73508;47.450;19.128;2024-02-26T07:00:49;22.47;;;10.83;;
75732;SDS011;73508;47.450;19.128;2024-02-26T07:03:15;20.63;;;11.03;;
75732;SDS011;73508;47.450;19.128;2024-02-26T07:05:40;23.17;;;11.30;;
75732;SDS011;73508;47.450;19.128;2024-02-26T07:08:07;21.57;;;11.43;;
75732;SDS011;73508;47.450;19.128;2024-02-26T07:10:32;24.08;;;12.27;;
75732;SDS011;73508;47.450;19.128;2024-02-26T07:12:57;23.80;;;12.50;;
75732;SDS011;73508;47.450;19.128;2024-02-26T07:15:23;25.08;;;12.45;;
75732;SDS011;73508;47.450;19.128;2024-02-26T07:17:49;22.40;;;12.47;;
75732;SDS011;73508;47.450;19.128;2024-02-26T07:20:14;22.53;;;12.13;;
75732;SDS011;73508;47.450;19.128;2024-02-26T07:22:40;25.48;;;13.07;;
75732;SDS011;73508;47.450;19.128;2024-02-26T07:25:07;22.73;;;12.82;;
75732;SDS011;73508;47.450;19.128;2024-02-26T07:27:33;23.73;;;12.45;;
75732;SDS011;73508;47.450;19.128;2024-02-26T07:29:59;21.93;;;11.63;;
75732;SDS011;73508;47.450;19.128;2024-02-26T07:32:24;25.67;;;12.60;;
75732;SDS011;73508;47.450;19.128;2024-02-26T07:34:49;23.87;;;12.20;;
75732;SDS011;73508;47.450;19.128;2024-02-26T07:37:15;23.53;;;12.90;;
75732;SDS011;73508;47.450;19.128;2024-02-26T07:39:40;23.63;;;13.87;;
75732;SDS011;73508;47.450;19.128;2024-02-26T07:42:05;23.75;;;13.05;;
75732;SDS011;73508;47.450;19.128;2024-02-26T07:44:31;21.77;;;11.83;;
75732;SDS011;73508;47.450;19.128;2024-02-26T07:46:56;20.57;;;11.97;;
75732;SDS011;73508;47.450;19.128;2024-02-26T07:49:22;22.20;;;11.90;;
75732;SDS011;73508;47.450;19.128;2024-02-26T07:51:47;23.90;;;12.33;;
75732;SDS011;73508;47.450;19.128;2024-02-26T07:54:12;21.37;;;12.02;;
75732;SDS011;73508;47.450;19.128;2024-02-26T07:56:38;22.93;;;12.23;;
75732;SDS011;73508;47.450;19.128;2024-02-26T07:59:03;24.43;;;12.80;;
75732;SDS011;73508;47.450;19.128;2024-02-26T08:01:28;25.27;;;13.33;;
75732;SDS011;73508;47.450;19.128;2024-02-26T08:03:54;22.43;;;12.77;;
75732;SDS011;73508;47.450;19.128;2024-02-26T08:06:19;25.60;;;13.20;;
75732;SDS011;73508;47.450;19.128;2024-02-26T08:08:44;24.50;;;14.30;;
75732;SDS011;73508;47.450;19.128;2024-02-26T08:11:10;28.80;;;16.13;;
75732;SDS011;73508;47.450;19.128;2024-02-26T08:13:35;25.57;;;14.20;;
75732;SDS011;73508;47.450;19.128;2024-02-26T08:16:01;28.57;;;15.47;;
75732;SDS011;73508;47.450;19.128;2024-02-26T08:18:26;28.80;;;16.73;;
75732;SDS011;73508;47.450;19.128;2024-02-26T08:20:51;31.23;;;16.80;;
75732;SDS011;73508;47.450;19.128;2024-02-26T08:23:17;34.10;;;18.40;;
75732;SDS011;73508;47.450;19.128;2024-02-26T08:25:42;25.90;;;15.70;;
75732;SDS011;73508;47.450;19.128;2024-02-26T08:28:08;28.37;;;15.93;;
75732;SDS011;73508;47.450;19.128;2024-02-26T08:30:33;28.07;;;15.70;;
75732;SDS011;73508;47.450;19.128;2024-02-26T08:32:59;28.77;;;16.30;;
75732;SDS011;73508;47.450;19.128;2024-02-26T08:35:24;29.23;;;17.07;;
75732;SDS011;73508;47.450;19.128;2024-02-26T08:37:50;28.93;;;17.70;;
75732;SDS011;73508;47.450;19.128;2024-02-26T08:40:15;31.17;;;17.53;;
75732;SDS011;73508;47.450;19.128;2024-02-26T08:42:40;31.77;;;18.40;;
75732;SDS011;73508;47.450;19.128;2024-02-26T08:45:07;32.20;;;18.00;;
75732;SDS011;73508;47.450;19.128;2024-02-26T08:47:33;28.58;;;17.67;;
75732;SDS011;73508;47.450;19.128;2024-02-26T08:49:58;32.20;;;18.87;;
75732;SDS011;73508;47.450;19.128;2024-02-26T08:52:23;29.40;;;18.30;;
75732;SDS011;73508;47.450;19.128;2024-02-26T08:54:49;33.78;;;17.33;;
75732;SDS011;73508;47.450;19.128;2024-02-26T08:57:15;28.27;;;16.90;;
75732;SDS011;73508;47.450;19.128;2024-02-26T08:59:40;26.67;;;16.53;;
75732;SDS011;73508;47.450;19.128;2024-02-26T09:02:05;27.73;;;16.57;;
75732;SDS011;73508;47.450;19.128;2024-02-26T09:04:32;29.02;;;16.83;;
75732;SDS011;73508;47.450;19.128;2024-02-26T09:06:57;31.00;;;17.63;;
75732;SDS011;73508;47.450;19.128;2024-02-26T09:09:22;31.03;;;17.97;;
75732;SDS011;73508;47.450;19.128;2024-02-26T09:11:50;29.45;;;16.75;;
75732;SDS011;73508;47.450;19.128;2024-02-26T09:14:17;31.90;;;18.35;;
75732;SDS011;73508;47.450;19.128;2024-02-26T09:16:43;32.42;;;18.17;;
75732;SDS011;73508;47.450;19.128;2024-02-26T09:19:08;29.50;;;18.10;;
75732;SDS011;73508;47.450;19.128;2024-02-26T09:21:33;31.13;;;17.63;;
75732;SDS011;73508;47.450;19.128;2024-02-26T09:23:58;29.30;;;17.77;;
75732;SDS011;73508;47.450;19.128;2024-02-26T09:26:24;30.77;;;17.50;;
75732;SDS011;73508;47.450;19.128;2024-02-26T09:28:49;32.73;;;18.73;;
75732;SDS011;73508;47.450;19.128;2024-02-26T09:31:15;31.08;;;18.15;;
75732;SDS011;73508;47.450;19.128;2024-02-26T09:33:41;29.57;;;16.90;;
75732;SDS011;73508;47.450;19.128;2024-02-26T09:36:07;29.83;;;17.30;;
75732;SDS011;73508;47.450;19.128;2024-02-26T09:38:34;31.12;;;18.65;;
75732;SDS011;73508;47.450;19.128;2024-02-26T09:41:02;29.30;;;17.83;;
75732;SDS011;73508;47.450;19.128;2024-02-26T09:43:30;32.15;;;18.60;;
75732;SDS011;73508;47.450;19.128;2024-02-26T09:45:59;26.48;;;16.70;;
75732;SDS011;73508;47.450;19.128;2024-02-26T09:48:25;30.30;;;17.17;;
75732;SDS011;73508;47.450;19.128;2024-02-26T09:50:50;29.63;;;16.63;;
75732;SDS011;73508;47.450;19.128;2024-02-26T09:53:16;25.73;;;16.15;;
75732;SDS011;73508;47.450;19.128;2024-02-26T09:55:42;29.75;;;16.62;;
75732;SDS011;73508;47.450;19.128;2024-02-26T09:58:07;25.20;;;16.47;;
75732;SDS011;73508;47.450;19.128;2024-02-26T10:00:36;28.08;;;16.95;;
75732;SDS011;73508;47.450;19.128;2024-02-26T10:03:03;24.33;;;16.07;;
75732;SDS011;73508;47.450;19.128;2024-02-26T10:05:30;24.63;;;15.85;;
75732;SDS011;73508;47.450;19.128;2024-02-26T10:07:57;24.87;;;16.10;;
75732;SDS011;73508;47.450;19.128;2024-02-26T10:10:23;25.80;;;15.55;;
75732;SDS011;73508;47.450;19.128;2024-02-26T10:12:49;25.97;;;15.00;;
75732;SDS011;73508;47.450;19.128;2024-02-26T10:15:15;24.90;;;15.45;;
75732;SDS011;73508;47.450;19.128;2024-02-26T10:17:40;25.70;;;16.00;;
75732;SDS011;73508;47.450;19.128;2024-02-26T10:20:13;23.85;;;15.13;;
75732;SDS011;73508;47.450;19.128;2024-02-26T10:22:42;25.85;;;15.40;;
75732;SDS011;73508;47.450;19.128;2024-02-26T10:25:08;28.80;;;15.90;;
75732;SDS011;73508;47.450;19.128;2024-02-26T10:27:34;27.45;;;16.42;;
75732;SDS011;73508;47.450;19.128;2024-02-26T10:30:42;28.00;;;16.10;;
75732;SDS011;73508;47.450;19.128;2024-02-26T10:32:50;30.62;;;17.23;;
75732;SDS011;73508;47.450;19.128;2024-02-26T10:35:16;26.45;;;16.45;;
75732;SDS011;73508;47.450;19.128;2024-02-26T10:37:42;27.73;;;16.27;;
75732;SDS011;73508;47.450;19.128;2024-02-26T10:40:12;24.92;;;15.90;;
75732;SDS011;73508;47.450;19.128;2024-02-26T10:42:38;25.10;;;15.65;;
75732;SDS011;73508;47.450;19.128;2024-02-26T10:45:04;23.60;;;14.17;;
75732;SDS011;73508;47.450;19.128;2024-02-26T10:47:30;23.67;;;14.35;;
75732;SDS011;73508;47.450;19.128;2024-02-26T10:49:58;22.90;;;14.32;;
75732;SDS011;73508;47.450;19.128;2024-02-26T10:52:23;21.33;;;13.47;;
75732;SDS011;73508;47.450;19.128;2024-02-26T10:54:50;20.58;;;13.15;;
75732;SDS011;73508;47.450;19.128;2024-02-26T10:57:18;20.15;;;12.37;;
75732;SDS011;73508;47.450;19.128;2024-02-26T10:59:44;16.00;;;10.70;;
75732;SDS011;73508;47.450;19.128;2024-02-26T11:02:10;19.47;;;10.93;;
75732;SDS011;73508;47.450;19.128;2024-02-26T11:04:37;20.80;;;11.20;;
75732;SDS011;73508;47.450;19.128;2024-02-26T11:07:03;19.52;;;10.10;;
75732;SDS011;73508;47.450;19.128;2024-02-26T11:09:29;16.03;;;10.13;;
75732;SDS011;73508;47.450;19.128;2024-02-26T11:11:56;16.60;;;10.52;;
75732;SDS011;73508;47.450;19.128;2024-02-26T11:14:22;15.82;;;10.15;;
75732;SDS011;73508;47.450;19.128;2024-02-26T11:16:52;19.90;;;10.68;;
75732;SDS011;73508;47.450;19.128;2024-02-26T11:19:17;19.17;;;10.90;;
75732;SDS011;73508;47.450;19.128;2024-02-26T11:21:43;17.00;;;10.90;;
75732;SDS011;73508;47.450;19.128;2024-02-26T11:24:11;16.80;;;9.85;;
75732;SDS011;73508;47.450;19.128;2024-02-26T11:26:39;15.35;;;10.00;;
75732;SDS011;73508;47.450;19.128;2024-02-26T11:29:10;14.87;;;9.23;;
75732;SDS011;73508;47.450;19.128;2024-02-26T11:31:37;16.23;;;9.68;;
75732;SDS011;73508;47.450;19.128;2024-02-26T11:34:03;14.23;;;9.13;;
75732;SDS011;73508;47.450;19.128;2024-02-26T11:36:28;16.30;;;9.68;;
75732;SDS011;73508;47.450;19.128;2024-02-26T11:38:55;14.40;;;9.50;;
75732;SDS011;73508;47.450;19.128;2024-02-26T11:41:20;20.55;;;11.52;;
75732;SDS011;73508;47.450;19.128;2024-02-26T11:43:49;14.97;;;9.30;;
75732;SDS011;73508;47.450;19.128;2024-02-26T11:46:24;13.07;;;8.50;;
75732;SDS011;73508;47.450;19.128;2024-02-26T11:51:57;10.60;;;6.80;;
75732;SDS011;73508;47.450;19.128;2024-02-26T11:54:44;10.10;;;6.90;;
75732;SDS011;73508;47.450;19.128;2024-02-26T11:57:22;11.18;;;7.18;;
75732;SDS011;73508;47.450;19.128;2024-02-26T11:59:51;10.07;;;6.90;;
75732;SDS011;73508;47.450;19.128;2024-02-26T12:05:14;10.93;;;6.90;;
75732;SDS011;73508;47.450;19.128;2024-02-26T12:08:02;10.88;;;6.22;;
75732;SDS011;73508;47.450;19.128;2024-02-26T12:10:41;10.02;;;6.22;;
75732;SDS011;73508;47.450;19.128;2024-02-26T12:13:12;11.77;;;6.97;;
75732;SDS011;73508;47.450;19.128;2024-02-26T12:15:39;13.75;;;6.20;;
75732;SDS011;73508;47.450;19.128;2024-02-26T12:18:07;9.43;;;5.93;;
75732;SDS011;73508;47.450;19.128;2024-02-26T12:20:34;10.00;;;6.37;;
75732;SDS011;73508;47.450;19.128;2024-02-26T12:23:00;11.97;;;7.13;;
75732;SDS011;73508;47.450;19.128;2024-02-26T12:25:28;10.97;;;6.33;;
75732;SDS011;73508;47.450;19.128;2024-02-26T12:27:55;9.65;;;6.80;;
75732;SDS011;73508;47.450;19.128;2024-02-26T12:30:21;12.80;;;6.70;;
75732;SDS011;73508;47.450;19.128;2024-02-26T12:32:47;9.40;;;6.73;;
75732;SDS011;73508;47.450;19.128;2024-02-26T12:35:13;12.23;;;8.18;;
75732;SDS011;73508;47.450;19.128;2024-02-26T12:37:39;13.80;;;7.62;;
75732;SDS011;73508;47.450;19.128;2024-02-26T12:40:05;10.47;;;7.17;;
75732;SDS011;73508;47.450;19.128;2024-02-26T12:42:33;10.95;;;7.53;;
75732;SDS011;73508;47.450;19.128;2024-02-26T12:45:04;10.57;;;7.22;;
75732;SDS011;73508;47.450;19.128;2024-02-26T12:47:34;9.60;;;6.37;;
75732;SDS011;73508;47.450;19.128;2024-02-26T12:50:01;10.07;;;6.62;;
75732;SDS011;73508;47.450;19.128;2024-02-26T12:52:26;11.67;;;6.60;;
75732;SDS011;73508;47.450;19.128;2024-02-26T12:54:51;11.70;;;6.33;;
75732;SDS011;73508;47.450;19.128;2024-02-26T12:57:17;9.90;;;5.60;;
75732;SDS011;73508;47.450;19.128;2024-02-26T12:59:42;10.67;;;5.77;;
75732;SDS011;73508;47.450;19.128;2024-02-26T13:02:08;9.82;;;5.40;;
75732;SDS011;73508;47.450;19.128;2024-02-26T13:04:34;9.40;;;5.28;;
75732;SDS011;73508;47.450;19.128;2024-02-26T13:06:59;9.93;;;5.23;;
75732;SDS011;73508;47.450;19.128;2024-02-26T13:09:28;6.40;;;3.62;;
75732;SDS011;73508;47.450;19.128;2024-02-26T13:11:54;10.70;;;4.13;;
75732;SDS011;73508;47.450;19.128;2024-02-26T13:14:20;8.48;;;3.90;;
75732;SDS011;73508;47.450;19.128;2024-02-26T13:16:54;9.65;;;3.70;;
75732;SDS011;73508;47.450;19.128;2024-02-26T13:19:20;5.62;;;3.10;;
75732;SDS011;73508;47.450;19.128;2024-02-26T13:21:45;4.93;;;2.57;;
75732;SDS011;73508;47.450;19.128;2024-02-26T13:24:12;4.53;;;2.50;;
75732;SDS011;73508;47.450;19.128;2024-02-26T13:26:38;6.15;;;3.25;;
75732;SDS011;73508;47.450;19.128;2024-02-26T13:29:04;5.30;;;3.17;;
75732;SDS011;73508;47.450;19.128;2024-02-26T13:31:30;7.28;;;3.83;;
75732;SDS011;73508;47.450;19.128;2024-02-26T13:33:55;8.13;;;4.00;;
75732;SDS011;73508;47.450;19.128;2024-02-26T13:36:21;6.83;;;4.40;;
75732;SDS011;73508;47.450;19.128;2024-02-26T13:38:53;7.18;;;4.32;;
75732;SDS011;73508;47.450;19.128;2024-02-26T13:41:19;8.85;;;5.35;;
75732;SDS011;73508;47.450;19.128;2024-02-26T13:43:45;9.30;;;6.32;;
75732;SDS011;73508;47.450;19.128;2024-02-26T13:46:11;12.63;;;7.27;;
75732;SDS011;73508;47.450;19.128;2024-02-26T13:48:38;12.93;;;7.72;;
75732;SDS011;73508;47.450;19.128;2024-02-26T13:51:04;10.63;;;7.53;;
75732;SDS011;73508;47.450;19.128;2024-02-26T13:53:29;11.27;;;7.40;;
75732;SDS011;73508;47.450;19.128;2024-02-26T13:55:55;12.93;;;7.73;;
75732;SDS011;73508;47.450;19.128;2024-02-26T13:58:20;10.60;;;7.03;;
75732;SDS011;73508;47.450;19.128;2024-02-26T14:00:48;9.88;;;6.28;;
75732;SDS011;73508;47.450;19.128;2024-02-26T14:03:14;9.93;;;6.60;;
75732;SDS011;73508;47.450;19.128;2024-02-26T14:05:39;10.32;;;6.57;;
75732;SDS011;73508;47.450;19.128;2024-02-26T14:08:05;10.13;;;6.90;;
75732;SDS011;73508;47.450;19.128;2024-02-26T14:10:31;10.13;;;7.35;;
75732;SDS011;73508;47.450;19.128;2024-02-26T14:12:57;8.87;;;6.17;;
75732;SDS011;73508;47.450;19.128;2024-02-26T14:15:23;9.93;;;7.70;;